Time;durP1;ratioP1;P1;durP2;ratioP2;P2;SDS_P1;SDS_P2;PMS_P1;PMS_P2;Temp;Humidity;BMP_temperature;BMP_pressure;BME280_temperature;BME280_humidity;BME280_pressure;Samples;Min_cycle;Max_cycle;Signal;HPM_P1;HPM_P2
2021/08/14 00:00:48;;;;;;;20.10;4.78;;;42.50;28.50;;;;;;5082646;28;20072;-58
2021/08/14 00:03:14;;;;;;;13.45;4.88;;;42.40;28.80;;;;;;5084469;28;20160;-60
2021/08/14 00:05:41;;;;;;;21.25;4.88;;;42.50;29.30;;;;;;5082505;28;20083;-58
2021/08/14 00:08:07;;;;;;;10.93;4.57;;;42.60;28.50;;;;;;5082414;28;20077;-59
2021/08/14 00:10:34;;;;;;;9.13;4.45;;;42.30;28.40;;;;;;5078935;28;20210;-58
2021/08/14 00:13:00;;;;;;;20.50;4.45;;;42.30;28.40;;;;;;5083663;28;20073;-60
2021/08/14 00:15:27;;;;;;;16.02;4.68;;;42.40;28.70;;;;;;5083676;28;20462;-57
2021/08/14 00:17:53;;;;;;;11.02;4.45;;;42.30;28.90;;;;;;5080111;28;20064;-59
2021/08/14 00:20:20;;;;;;;11.85;4.15;;;42.30;28.40;;;;;;5080403;28;20522;-58
2021/08/14 00:22:46;;;;;;;11.43;4.10;;;42.20;28.20;;;;;;5083910;28;20573;-59
2021/08/14 00:25:13;;;;;;;12.45;4.03;;;42.10;28.00;;;;;;5084262;28;20104;-59
2021/08/14 00:27:39;;;;;;;13.13;4.25;;;41.80;28.00;;;;;;5082030;28;20481;-58
2021/08/14 00:30:06;;;;;;;12.77;3.72;;;41.70;28.20;;;;;;5081503;28;20077;-57
2021/08/14 00:32:33;;;;;;;7.15;3.22;;;41.60;28.30;;;;;;5080885;28;20148;-57
2021/08/14 00:34:59;;;;;;;9.23;3.75;;;41.60;28.40;;;;;;5085062;28;20072;-58
2021/08/14 00:37:26;;;;;;;13.40;4.00;;;41.60;28.50;;;;;;5090930;28;20118;-57
2021/08/14 00:39:52;;;;;;;14.50;4.30;;;41.60;28.70;;;;;;5088232;28;20521;-58
2021/08/14 00:42:19;;;;;;;11.27;3.92;;;41.60;29.20;;;;;;5086894;28;20511;-58
2021/08/14 00:44:47;;;;;;;9.10;3.80;;;41.60;29.80;;;;;;5082502;28;20100;-58
2021/08/14 00:47:13;;;;;;;11.95;4.00;;;41.40;28.20;;;;;;5083557;28;21447;-57
2021/08/14 00:49:39;;;;;;;10.45;3.83;;;41.40;28.80;;;;;;5081830;28;20069;-58
2021/08/14 00:52:06;;;;;;;12.45;4.47;;;41.30;29.00;;;;;;5084767;28;20235;-58
2021/08/14 00:54:33;;;;;;;13.30;4.03;;;41.00;28.60;;;;;;5084723;28;20068;-58
2021/08/14 00:57:00;;;;;;;11.27;3.92;;;41.00;29.50;;;;;;5084510;28;20088;-59
2021/08/14 00:59:30;;;;;;;9.80;4.10;;;41.00;29.10;;;;;;5081457;28;20083;-58
2021/08/14 01:01:57;;;;;;;11.02;3.65;;;40.90;29.90;;;;;;5080696;28;20107;-59
2021/08/14 01:04:23;;;;;;;10.52;3.88;;;41.00;28.40;;;;;;5085914;28;20557;-58
2021/08/14 01:06:51;;;;;;;13.15;4.05;;;41.00;29.40;;;;;;5084263;28;20084;-59
2021/08/14 02:00:09;;;;;;;19.75;4.97;;;35.30;30.50;;;;;;5065156;28;20525;-66
2021/08/14 02:02:36;;;;;;;16.98;5.05;;;39.60;34.70;;;;;;5040898;28;20550;-66
2021/08/14 02:05:05;;;;;;;10.93;4.43;;;39.40;34.90;;;;;;5046735;28;20085;-66
2021/08/14 02:07:31;;;;;;;16.88;5.10;;;39.40;35.50;;;;;;5045200;28;20084;-66
2021/08/14 02:09:58;;;;;;;15.65;5.03;;;39.30;34.60;;;;;;5046495;28;20535;-66
2021/08/14 02:12:24;;;;;;;16.85;5.13;;;39.30;34.80;;;;;;5045484;28;20116;-66
2021/08/14 02:14:51;;;;;;;16.50;4.68;;;39.20;33.40;;;;;;5046432;28;20078;-66
2021/08/14 02:17:17;;;;;;;19.67;4.43;;;39.20;33.60;;;;;;5047164;28;20430;-66
2021/08/14 02:19:44;;;;;;;16.30;4.80;;;39.10;34.10;;;;;;5046825;28;20086;-65
2021/08/14 02:22:11;;;;;;;17.17;5.40;;;39.10;34.60;;;;;;5045773;28;20074;-66
2021/08/14 02:24:37;;;;;;;17.50;4.95;;;39.10;35.40;;;;;;5046079;28;20092;-67
2021/08/14 02:27:04;;;;;;;16.63;5.28;;;39.00;36.00;;;;;;5043720;28;20073;-68
2021/08/14 02:29:33;;;;;;;21.52;5.07;;;38.90;36.40;;;;;;5047153;28;20082;-69
2021/08/14 02:32:00;;;;;;;20.00;5.13;;;38.80;36.50;;;;;;5045654;28;20081;-69
2021/08/14 02:34:27;;;;;;;14.48;4.40;;;38.70;38.20;;;;;;5042777;28;20082;-69
2021/08/14 02:36:54;;;;;;;15.75;4.20;;;38.60;36.70;;;;;;5042198;28;20519;-68
2021/08/14 02:39:20;;;;;;;17.42;4.45;;;38.60;38.10;;;;;;5046413;28;20085;-69
2021/08/14 02:41:47;;;;;;;12.15;3.90;;;38.50;36.70;;;;;;5045657;28;20077;-69
2021/08/14 02:44:13;;;;;;;14.88;4.22;;;38.60;37.50;;;;;;5046224;28;20074;-69
2021/08/14 02:46:40;;;;;;;12.73;3.88;;;38.50;38.60;;;;;;5044508;28;20173;-72
2021/08/14 02:49:06;;;;;;;24.20;4.93;;;38.40;38.20;;;;;;5046736;28;20131;-69
2021/08/14 02:51:33;;;;;;;18.50;4.00;;;38.40;38.90;;;;;;5044473;28;20081;-70
2021/08/14 02:53:59;;;;;;;14.70;3.88;;;38.40;38.80;;;;;;5045448;28;20103;-68
2021/08/14 02:56:26;;;;;;;9.50;3.45;;;38.30;37.50;;;;;;5045579;28;20084;-68
2021/08/14 02:58:52;;;;;;;19.77;4.72;;;38.30;38.70;;;;;;5043997;28;20117;-67
2021/08/14 03:01:18;;;;;;;15.35;3.90;;;38.30;39.20;;;;;;5030172;28;20478;-67
2021/08/14 03:03:45;;;;;;;10.32;4.10;;;38.20;38.80;;;;;;5032572;28;20483;-67
2021/08/14 03:06:28;;;;;;;13.68;3.50;;;38.10;38.60;;;;;;5032670;28;20092;-68
2021/08/14 03:08:54;;;;;;;25.25;4.05;;;38.10;31.40;;;;;;5031467;28;20541;-68
2021/08/14 03:11:21;;;;;;;13.27;3.85;;;38.20;32.90;;;;;;5030160;28;20554;-67
2021/08/14 03:13:48;;;;;;;245.82;88.40;;;38.10;30.30;;;;;;5029871;28;20119;-68
2021/08/14 03:16:14;;;;;;;719.03;208.13;;;38.10;32.40;;;;;;5029045;28;20070;-67
2021/08/14 03:18:41;;;;;;;197.27;58.70;;;38.10;34.80;;;;;;5027861;28;20090;-68
2021/08/14 03:21:08;;;;;;;252.80;56.78;;;38.00;38.30;;;;;;5030581;28;20093;-69
2021/08/14 03:23:34;;;;;;;19.40;5.85;;;37.90;40.00;;;;;;5030971;28;20557;-69
2021/08/14 03:26:01;;;;;;;24.45;6.35;;;37.80;40.70;;;;;;5030622;28;20423;-68
2021/08/14 03:28:27;;;;;;;418.25;102.55;;;37.70;40.80;;;;;;5030608;28;20569;-69
2021/08/14 03:30:54;;;;;;;52.83;10.20;;;37.70;41.50;;;;;;5031914;28;20074;-69
2021/08/14 03:33:20;;;;;;;516.25;91.88;;;37.70;40.50;;;;;;5032182;28;20074;-69
2021/08/14 03:35:47;;;;;;;24.10;6.70;;;37.60;36.70;;;;;;5032360;28;20081;-69
2021/08/14 03:38:13;;;;;;;312.83;53.45;;;37.60;36.10;;;;;;5031133;28;20100;-69
2021/08/14 03:40:40;;;;;;;236.50;46.90;;;37.50;39.50;;;;;;5031070;28;20449;-68
2021/08/14 03:43:06;;;;;;;456.60;88.63;;;37.50;40.00;;;;;;5032539;28;20078;-69
2021/08/14 03:45:33;;;;;;;135.02;23.95;;;37.50;40.30;;;;;;5030450;28;20074;-69
2021/08/14 03:47:59;;;;;;;365.35;69.20;;;37.40;40.30;;;;;;5031747;28;20333;-69
2021/08/14 03:50:26;;;;;;;311.88;55.50;;;37.40;40.90;;;;;;5025771;28;20093;-65
2021/08/14 03:52:52;;;;;;;107.40;19.23;;;37.40;41.40;;;;;;5030682;28;20078;-66
2021/08/14 03:55:19;;;;;;;192.63;35.78;;;37.30;41.90;;;;;;5031760;28;20107;-67
2021/08/14 03:57:45;;;;;;;147.63;35.28;;;37.30;41.50;;;;;;5029856;28;20496;-67
2021/08/14 04:00:12;;;;;;;473.17;99.80;;;37.20;41.80;;;;;;5031561;28;20070;-67
2021/08/14 04:02:38;;;;;;;480.63;173.60;;;37.10;42.20;;;;;;5031360;28;20208;-64
2021/08/14 04:05:05;;;;;;;514.33;196.95;;;36.90;43.40;;;;;;5030829;28;20085;-66
2021/08/14 04:07:32;;;;;;;287.60;94.47;;;36.80;42.90;;;;;;5030497;28;20458;-66
2021/08/14 04:09:58;;;;;;;622.17;273.60;;;36.80;42.90;;;;;;5031133;28;20082;-66
2021/08/14 04:12:24;;;;;;;378.02;125.90;;;36.70;43.40;;;;;;5029986;28;20070;-67
2021/08/14 04:14:51;;;;;;;342.45;152.45;;;36.60;43.60;;;;;;5031608;28;20106;-66
2021/08/14 04:17:18;;;;;;;341.25;82.10;;;36.50;44.20;;;;;;5032325;28;20070;-66
2021/08/14 04:19:45;;;;;;;230.63;71.57;;;36.50;43.50;;;;;;5032541;28;20112;-66
2021/08/14 04:22:13;;;;;;;14.35;2.90;;;36.50;43.60;;;;;;5030780;28;20086;-66
2021/08/14 04:24:40;;;;;;;20.95;6.57;;;36.50;43.80;;;;;;5030023;28;20192;-66
2021/08/14 04:27:13;;;;;;;40.42;12.32;;;36.40;43.80;;;;;;5030390;28;20078;-66
2021/08/14 04:29:41;;;;;;;26.95;9.07;;;36.50;43.90;;;;;;5030259;28;20171;-66
2021/08/14 04:32:11;;;;;;;10.88;3.25;;;36.40;44.00;;;;;;5030688;28;20086;-66
2021/08/14 04:34:38;;;;;;;9.35;2.88;;;36.40;44.10;;;;;;5028859;28;20090;-66
2021/08/14 04:37:05;;;;;;;37.95;11.48;;;36.40;44.30;;;;;;5031298;28;20164;-67
2021/08/14 04:39:32;;;;;;;19.27;2.97;;;36.40;44.30;;;;;;5030882;28;20090;-66
2021/08/14 04:41:58;;;;;;;17.95;4.55;;;36.30;44.60;;;;;;5029955;28;20078;-67
2021/08/14 04:44:25;;;;;;;23.52;6.63;;;36.30;45.30;;;;;;5031134;28;20426;-67
2021/08/14 04:46:51;;;;;;;139.82;34.38;;;36.20;45.20;;;;;;5031420;28;20589;-66
2021/08/14 04:49:18;;;;;;;54.13;16.10;;;36.10;45.50;;;;;;5030010;28;20102;-66
2021/08/14 04:51:44;;;;;;;70.80;17.52;;;36.10;46.00;;;;;;5030600;28;20089;-66
2021/08/14 04:54:11;;;;;;;26.35;7.40;;;35.90;46.90;;;;;;5030999;28;20072;-66
2021/08/14 04:56:37;;;;;;;15.00;4.47;;;35.80;46.60;;;;;;5029776;28;20442;-67
2021/08/14 04:59:04;;;;;;;32.20;6.95;;;35.70;46.80;;;;;;5030147;28;20171;-66
2021/08/14 05:01:30;;;;;;;14.45;4.18;;;35.70;46.80;;;;;;5030271;28;20066;-67
2021/08/14 05:03:57;;;;;;;10.77;4.05;;;35.60;47.50;;;;;;5030756;28;20070;-66
2021/08/14 05:06:23;;;;;;;13.40;4.53;;;35.60;47.00;;;;;;5030962;28;20470;-68
2021/08/14 05:08:50;;;;;;;22.52;7.07;;;35.50;46.70;;;;;;5030092;28;20164;-66
2021/08/14 05:11:17;;;;;;;17.50;5.63;;;35.50;46.50;;;;;;5030438;28;20157;-67
2021/08/14 05:13:43;;;;;;;21.65;5.72;;;35.40;46.30;;;;;;5030365;28;20447;-67
2021/08/14 05:16:10;;;;;;;15.85;6.40;;;35.40;46.20;;;;;;5030188;28;20099;-66
2021/08/14 05:18:36;;;;;;;19.35;6.63;;;35.30;47.30;;;;;;5030663;28;20101;-66
2021/08/14 05:21:03;;;;;;;54.78;13.63;;;35.30;46.00;;;;;;5029957;28;20434;-66
2021/08/14 05:23:29;;;;;;;35.45;8.65;;;35.20;46.00;;;;;;5029090;28;20113;-66
2021/08/14 05:25:56;;;;;;;17.40;5.95;;;35.20;45.40;;;;;;5029239;28;20066;-66
2021/08/14 05:28:22;;;;;;;12.98;5.78;;;35.20;45.90;;;;;;5029877;28;20156;-66
2021/08/14 05:30:49;;;;;;;31.17;9.77;;;35.10;46.00;;;;;;5030880;28;20531;-66
2021/08/14 05:33:16;;;;;;;16.05;5.97;;;35.00;46.40;;;;;;5030130;28;20173;-66
2021/08/14 05:35:42;;;;;;;30.50;9.88;;;35.00;46.40;;;;;;5029763;28;20074;-67
2021/08/14 05:38:09;;;;;;;29.40;13.15;;;35.00;47.00;;;;;;5028842;28;20558;-66
2021/08/14 05:40:35;;;;;;;46.78;13.15;;;35.00;46.60;;;;;;5029883;28;20100;-66
2021/08/14 05:43:03;;;;;;;16.65;5.38;;;34.90;46.70;;;;;;5029197;28;20074;-66
2021/08/14 05:45:30;;;;;;;25.02;6.90;;;35.00;47.40;;;;;;5029724;28;20077;-66
2021/08/14 05:47:56;;;;;;;34.15;9.52;;;34.90;47.60;;;;;;5030999;28;20074;-67
2021/08/14 05:50:23;;;;;;;35.50;10.00;;;34.90;47.90;;;;;;5029347;28;20132;-67
2021/08/14 05:52:50;;;;;;;15.05;5.50;;;34.80;48.40;;;;;;5028994;28;20081;-66
2021/08/14 05:55:16;;;;;;;16.83;5.30;;;34.90;48.50;;;;;;5029852;28;20156;-67
2021/08/14 05:57:43;;;;;;;9.27;4.63;;;34.90;49.10;;;;;;5028868;28;20070;-68
2021/08/14 06:00:11;;;;;;;9.70;4.18;;;34.80;49.60;;;;;;5029765;28;20089;-66
2021/08/14 06:02:37;;;;;;;10.93;4.45;;;34.70;49.60;;;;;;5029595;28;20479;-66
2021/08/14 06:05:04;;;;;;;15.23;4.20;;;34.60;50.10;;;;;;5030146;28;20100;-67
2021/08/14 06:07:31;;;;;;;10.25;3.60;;;34.60;50.50;;;;;;5028991;28;20695;-67
2021/08/14 06:09:57;;;;;;;9.13;3.80;;;34.50;50.80;;;;;;5029822;28;20466;-67
2021/08/14 06:12:24;;;;;;;11.32;3.75;;;34.50;50.50;;;;;;5029894;28;20148;-67
2021/08/14 06:14:50;;;;;;;18.13;3.60;;;34.50;48.00;;;;;;5028422;28;20087;-68
2021/08/14 06:17:17;;;;;;;14.18;3.35;;;34.50;45.60;;;;;;5030572;28;20073;-68
2021/08/14 06:19:44;;;;;;;12.35;3.50;;;34.50;44.30;;;;;;5029705;28;20470;-68
2021/08/14 06:22:10;;;;;;;14.10;3.47;;;34.50;44.60;;;;;;5026463;28;20073;-67
2021/08/14 06:24:37;;;;;;;15.60;3.80;;;34.50;44.20;;;;;;5029660;28;21791;-68
2021/08/14 06:27:03;;;;;;;20.17;3.88;;;34.50;44.90;;;;;;5028227;28;20079;-68
2021/08/14 06:29:30;;;;;;;23.90;4.20;;;34.50;46.00;;;;;;5029529;28;20132;-68
2021/08/14 06:31:57;;;;;;;25.30;5.35;;;34.50;46.60;;;;;;5029845;28;20070;-69
2021/08/14 06:34:23;;;;;;;28.98;5.97;;;34.40;46.60;;;;;;5028589;28;20076;-68
2021/08/14 06:36:50;;;;;;;18.63;5.35;;;34.30;47.00;;;;;;5032995;28;20091;-67
2021/08/14 06:39:16;;;;;;;22.60;5.63;;;34.30;47.40;;;;;;5032909;28;20125;-67
2021/08/14 06:41:42;;;;;;;11.30;4.57;;;34.30;47.60;;;;;;5032898;28;20501;-67
2021/08/14 06:44:09;;;;;;;10.80;3.50;;;34.40;49.80;;;;;;5032555;28;20076;-68
2021/08/14 06:46:36;;;;;;;12.85;3.70;;;34.30;51.30;;;;;;5032200;28;20101;-67
2021/08/14 06:49:03;;;;;;;15.18;4.75;;;34.30;51.80;;;;;;5033541;28;20078;-67
2021/08/14 06:51:30;;;;;;;10.35;3.75;;;34.30;52.30;;;;;;5032508;28;20109;-67
2021/08/14 06:53:58;;;;;;;13.68;3.63;;;34.20;64.70;;;;;;5032626;28;20611;-67
2021/08/14 06:56:25;;;;;;;16.10;3.97;;;34.20;84.40;;;;;;5032946;28;20097;-67
2021/08/14 06:58:51;;;;;;;14.27;3.80;;;34.30;53.10;;;;;;5031720;28;20618;-68
2021/08/14 07:01:18;;;;;;;12.40;3.75;;;34.30;53.30;;;;;;5032371;28;20543;-67
2021/08/14 07:03:44;;;;;;;15.07;3.17;;;34.20;53.00;;;;;;5032601;28;20085;-67
2021/08/14 07:06:21;;;;;;;14.65;3.47;;;34.20;53.20;;;;;;5032008;28;20074;-67
2021/08/14 07:08:48;;;;;;;11.30;2.85;;;34.20;53.50;;;;;;5032153;28;21645;-67
2021/08/14 07:11:16;;;;;;;13.18;3.95;;;34.10;54.00;;;;;;5029515;28;20165;-67
2021/08/14 07:13:43;;;;;;;19.80;4.35;;;34.10;54.20;;;;;;5032234;28;20092;-67
2021/08/14 07:16:10;;;;;;;13.50;4.68;;;34.10;54.60;;;;;;5031104;28;20074;-67
2021/08/14 07:18:37;;;;;;;19.15;5.38;;;34.10;55.00;;;;;;5031337;28;20132;-67
2021/08/14 07:21:03;;;;;;;16.42;4.85;;;34.10;55.10;;;;;;5033364;28;20128;-67
2021/08/14 07:23:30;;;;;;;18.20;4.60;;;34.10;55.20;;;;;;5032827;28;20082;-67
2021/08/14 07:25:57;;;;;;;14.40;4.95;;;34.10;55.10;;;;;;5032245;28;20077;-68
2021/08/14 07:28:23;;;;;;;16.67;4.90;;;34.00;55.10;;;;;;5031407;28;20086;-68
2021/08/14 07:30:50;;;;;;;11.00;4.97;;;34.00;55.80;;;;;;5031854;28;20168;-68
2021/08/14 07:33:20;;;;;;;17.00;4.90;;;33.90;55.40;;;;;;5031228;28;20115;-67
2021/08/14 07:35:47;;;;;;;11.05;4.70;;;33.90;55.20;;;;;;5030457;28;20108;-67
2021/08/14 07:38:16;;;;;;;14.75;4.50;;;33.90;55.10;;;;;;5031719;28;20106;-67
2021/08/14 07:40:43;;;;;;;10.15;4.47;;;33.90;55.00;;;;;;5030675;28;20153;-67
2021/08/14 07:43:10;;;;;;;17.13;3.92;;;33.80;55.00;;;;;;5031679;28;20081;-67
2021/08/14 07:45:37;;;;;;;9.20;3.53;;;33.80;54.60;;;;;;5031835;28;20073;-67
2021/08/14 07:48:05;;;;;;;10.07;3.10;;;33.80;54.50;;;;;;5030286;28;20157;-67
2021/08/14 07:50:32;;;;;;;11.00;3.10;;;33.80;54.40;;;;;;5031350;28;20153;-67
2021/08/14 07:53:00;;;;;;;12.52;3.00;;;33.80;54.50;;;;;;5031873;28;20074;-67
2021/08/14 07:55:27;;;;;;;9.98;3.38;;;33.70;55.40;;;;;;5031572;28;20073;-68
2021/08/14 07:57:54;;;;;;;12.30;3.65;;;33.70;55.60;;;;;;5030487;28;20178;-67
2021/08/14 08:00:22;;;;;;;7.68;3.75;;;33.60;55.50;;;;;;5031003;28;20113;-67
2021/08/14 08:02:49;;;;;;;8.00;3.47;;;33.60;56.10;;;;;;5032300;28;20070;-67
2021/08/14 08:05:16;;;;;;;11.40;3.40;;;33.50;56.40;;;;;;5030395;28;20097;-68
2021/08/14 08:07:44;;;;;;;6.72;3.25;;;33.50;56.70;;;;;;5030076;28;20069;-67
2021/08/14 08:10:13;;;;;;;8.85;3.13;;;33.50;57.40;;;;;;5031355;28;20082;-67
2021/08/14 08:12:40;;;;;;;10.38;3.85;;;33.50;57.90;;;;;;5030607;28;20558;-68
2021/08/14 08:15:08;;;;;;;16.15;5.55;;;33.40;87.00;;;;;;5030971;28;20561;-66
2021/08/14 08:17:35;;;;;;;12.68;5.15;;;33.40;57.80;;;;;;5031515;28;20082;-67
2021/08/14 08:20:03;;;;;;;11.98;4.88;;;33.50;58.30;;;;;;5046037;28;20085;-67
2021/08/14 08:22:29;;;;;;;11.60;4.85;;;33.40;58.10;;;;;;5031091;28;20523;-67
2021/08/14 08:24:56;;;;;;;12.40;4.78;;;33.40;58.80;;;;;;5029954;28;20132;-67
2021/08/14 08:27:26;;;;;;;15.23;4.93;;;33.40;59.00;;;;;;5031057;28;20109;-67
2021/08/14 08:29:52;;;;;;;14.85;4.53;;;33.40;59.70;;;;;;5028528;28;20108;-67
2021/08/14 08:32:19;;;;;;;9.23;3.72;;;33.30;59.60;;;;;;5031039;28;20073;-67
2021/08/14 08:34:46;;;;;;;13.35;3.75;;;33.20;60.00;;;;;;5030994;28;20074;-67
2021/08/14 08:37:12;;;;;;;16.65;3.95;;;33.30;60.90;;;;;;5030468;28;20078;-67
2021/08/14 08:39:39;;;;;;;13.82;3.28;;;33.30;60.80;;;;;;5028952;28;20560;-68
2021/08/14 08:42:09;;;;;;;10.60;3.17;;;33.30;61.70;;;;;;5030956;28;20523;-67
2021/08/14 08:44:35;;;;;;;9.93;2.80;;;33.40;61.50;;;;;;5029624;28;20173;-68
2021/08/14 08:47:07;;;;;;;11.20;3.28;;;33.30;62.00;;;;;;5031913;28;20541;-67
2021/08/14 08:49:34;;;;;;;9.57;2.60;;;33.30;63.00;;;;;;5030331;28;20111;-68
2021/08/14 08:52:00;;;;;;;8.60;3.08;;;33.40;81.10;;;;;;5031180;28;20077;-67
2021/08/14 08:54:27;;;;;;;9.30;3.08;;;33.20;64.10;;;;;;5030666;28;20089;-67
2021/08/14 08:56:53;;;;;;;9.88;2.83;;;33.10;65.20;;;;;;5029366;28;20448;-67
2021/08/14 08:59:20;;;;;;;14.27;3.25;;;33.10;65.90;;;;;;5029035;28;20372;-67
2021/08/14 09:01:46;;;;;;;12.90;3.22;;;33.10;66.70;;;;;;5030092;28;20074;-68
2021/08/14 09:04:39;;;;;;;10.73;3.10;;;33.10;67.20;;;;;;5029244;28;20536;-68
2021/08/14 09:07:05;;;;;;;11.02;2.88;;;33.00;68.00;;;;;;5027588;28;20085;-67
2021/08/14 09:09:33;;;;;;;10.60;2.92;;;32.90;68.40;;;;;;5030291;28;20111;-68
2021/08/14 09:12:03;;;;;;;9.38;2.50;;;32.90;69.20;;;;;;5036307;28;20122;-66
2021/08/14 09:14:44;;;;;;;11.50;2.85;;;32.80;69.80;;;;;;5029841;28;20074;-67
2021/08/14 09:17:14;;;;;;;9.55;3.40;;;32.90;70.20;;;;;;5031586;28;20568;-67
2021/08/14 09:19:41;;;;;;;9.48;2.75;;;32.80;70.40;;;;;;5028808;28;20480;-68
2021/08/14 09:22:24;;;;;;;11.38;2.67;;;32.80;70.60;;;;;;5031089;28;20074;-67
2021/08/14 09:24:51;;;;;;;9.38;2.92;;;32.80;71.00;;;;;;5029714;28;20085;-67
2021/08/14 09:27:17;;;;;;;11.68;2.53;;;32.80;71.60;;;;;;5030116;28;20685;-67
2021/08/14 09:29:48;;;;;;;7.38;2.63;;;32.70;72.20;;;;;;5030064;28;20144;-68
2021/08/14 09:32:19;;;;;;;10.10;2.78;;;32.50;72.40;;;;;;5028796;28;20086;-67
2021/08/14 09:34:47;;;;;;;7.95;2.75;;;32.60;72.80;;;;;;5029728;28;20493;-67
2021/08/14 09:37:16;;;;;;;10.73;2.53;;;32.50;73.40;;;;;;5027712;28;20151;-67
2021/08/14 09:40:10;;;;;;;7.80;2.55;;;32.50;73.70;;;;;;5029473;28;20132;-67
2021/08/14 09:42:56;;;;;;;10.20;3.20;;;32.40;74.00;;;;;;5027682;28;20090;-67
2021/08/14 09:45:23;;;;;;;14.90;2.80;;;32.40;73.80;;;;;;5029515;28;21636;-67
2021/08/14 09:47:51;;;;;;;12.10;2.60;;;32.40;74.10;;;;;;5030686;28;20077;-67
2021/08/14 09:50:18;;;;;;;12.07;2.88;;;32.40;74.50;;;;;;5029271;28;20089;-67
2021/08/14 09:52:52;;;;;;;9.18;2.45;;;32.40;74.10;;;;;;5029210;28;20074;-67
2021/08/14 09:55:26;;;;;;;7.35;2.72;;;32.30;74.50;;;;;;5027355;28;20545;-67
2021/08/14 09:58:03;;;;;;;11.77;2.97;;;32.40;74.40;;;;;;5011715;28;20116;-67
2021/08/14 10:00:31;;;;;;;8.35;2.92;;;32.30;75.00;;;;;;5029213;28;20135;-67
2021/08/14 10:03:02;;;;;;;10.75;2.55;;;32.30;76.00;;;;;;5028523;28;20483;-67
2021/08/14 10:05:33;;;;;;;9.10;2.50;;;32.30;76.50;;;;;;5029962;28;20119;-68
2021/08/14 10:08:05;;;;;;;14.45;3.40;;;32.20;77.00;;;;;;5028727;28;20465;-67
2021/08/14 10:10:38;;;;;;;12.02;3.40;;;32.20;77.40;;;;;;5031755;28;20077;-67
2021/08/14 10:13:05;;;;;;;11.48;3.13;;;32.00;77.70;;;;;;5033938;28;20081;-67
2021/08/14 10:15:41;;;;;;;11.98;4.63;;;32.00;93.40;;;;;;5048555;28;20041;-67
2021/08/14 10:18:07;;;;;;;11.27;3.75;;;32.00;77.90;;;;;;5034031;28;20139;-67
2021/08/14 10:20:34;;;;;;;15.25;4.00;;;32.00;78.10;;;;;;5033055;28;20132;-67
2021/08/14 10:23:03;;;;;;;16.83;3.97;;;32.00;77.50;;;;;;5032366;28;20077;-67
2021/08/14 10:25:32;;;;;;;14.95;3.65;;;32.00;78.60;;;;;;5034205;28;20086;-67
2021/08/14 10:28:01;;;;;;;10.43;3.53;;;32.00;78.10;;;;;;5033262;28;20073;-67
2021/08/14 10:30:48;;;;;;;9.85;3.67;;;31.90;78.30;;;;;;5033115;28;20455;-66
2021/08/14 10:33:35;;;;;;;20.52;4.05;;;31.80;78.20;;;;;;5032547;28;20165;-67
2021/08/14 10:36:17;;;;;;;12.73;2.95;;;31.80;77.80;;;;;;5032738;28;20112;-67
2021/08/14 10:38:45;;;;;;;8.95;2.22;;;31.80;78.20;;;;;;5032550;28;20093;-66
2021/08/14 10:41:13;;;;;;;21.33;2.83;;;31.80;78.40;;;;;;5031670;28;20070;-67
2021/08/14 10:43:54;;;;;;;14.07;2.40;;;31.70;76.70;;;;;;5032831;28;20581;-67
2021/08/14 10:46:48;;;;;;;7.30;2.35;;;31.60;76.20;;;;;;5032329;28;20074;-67
2021/08/14 10:49:31;;;;;;;11.52;2.35;;;31.70;75.40;;;;;;5031701;28;20549;-66
2021/08/14 10:52:04;;;;;;;11.10;2.90;;;31.60;74.90;;;;;;5033712;28;20167;-67
2021/08/14 10:54:33;;;;;;;13.88;2.92;;;31.60;74.90;;;;;;5032784;28;20228;-67
2021/08/14 10:57:08;;;;;;;17.98;2.65;;;31.50;75.20;;;;;;5032980;28;20161;-67
2021/08/14 10:59:38;;;;;;;42.53;3.65;;;31.50;74.70;;;;;;5033061;28;20121;-67
2021/08/14 11:02:10;;;;;;;100.60;7.47;;;31.40;74.00;;;;;;5033006;28;20085;-67
2021/08/14 11:04:53;;;;;;;138.25;9.95;;;31.50;71.50;;;;;;5032214;28;20096;-67
2021/08/14 11:07:20;;;;;;;179.60;11.05;;;31.40;68.00;;;;;;5031323;28;20076;-67
2021/08/14 11:09:52;;;;;;;176.95;11.70;;;31.20;64.60;;;;;;5032193;28;20098;-66
2021/08/14 11:12:32;;;;;;;160.20;10.20;;;31.10;63.40;;;;;;5031604;28;20685;-66
2021/08/14 11:15:20;;;;;;;103.32;9.07;;;31.00;61.50;;;;;;5031046;28;20077;-65
2021/08/14 11:17:58;;;;;;;102.97;8.57;;;30.80;62.70;;;;;;5032011;28;20164;-66
2021/08/14 11:20:25;;;;;;;107.70;8.63;;;30.80;61.80;;;;;;5031739;28;20558;-66
2021/08/14 11:22:53;;;;;;;118.90;8.52;;;30.80;61.70;;;;;;5032174;28;20580;-66
2021/08/14 11:25:25;;;;;;;78.68;7.40;;;30.70;61.40;;;;;;5030739;28;20089;-66
2021/08/14 11:27:57;;;;;;;89.28;6.90;;;30.50;61.90;;;;;;5032200;28;20098;-66
2021/08/14 11:30:26;;;;;;;73.70;7.10;;;30.50;61.90;;;;;;5031973;28;20526;-66
2021/08/14 11:32:54;;;;;;;75.53;7.03;;;30.40;62.70;;;;;;5031256;28;20153;-66
2021/08/14 11:35:23;;;;;;;71.47;6.72;;;30.50;61.90;;;;;;5032328;28;20458;-66
2021/08/14 11:38:18;;;;;;;67.10;7.80;;;30.40;61.80;;;;;;5033722;28;20124;-69
2021/08/14 11:40:45;;;;;;;76.00;6.88;;;30.40;61.80;;;;;;5031788;28;20192;-66
2021/08/14 11:43:17;;;;;;;66.63;6.82;;;30.40;61.90;;;;;;5031364;28;20549;-67
2021/08/14 11:45:46;;;;;;;78.85;7.72;;;30.40;62.10;;;;;;5031732;28;20220;-67
2021/08/14 11:48:17;;;;;;;57.38;5.70;;;30.50;61.90;;;;;;5031354;28;20177;-67
2021/08/14 11:50:49;;;;;;;40.72;4.40;;;30.40;61.20;;;;;;5031437;28;20081;-66
2021/08/14 11:53:27;;;;;;;34.85;4.70;;;30.20;61.30;;;;;;5032069;28;20435;-67
2021/08/14 11:56:12;;;;;;;46.22;4.88;;;30.20;62.00;;;;;;5031214;28;20101;-67
2021/08/14 11:58:40;;;;;;;67.15;6.55;;;30.20;61.80;;;;;;5030786;28;20145;-66
2021/08/14 12:01:07;;;;;;;59.80;5.30;;;30.20;61.70;;;;;;5031612;28;20070;-66
2021/08/14 12:03:34;;;;;;;41.53;4.82;;;30.20;62.00;;;;;;5032170;28;20522;-66
2021/08/14 12:06:16;;;;;;;45.72;5.07;;;30.10;61.30;;;;;;5030087;28;20084;-67
2021/08/14 12:08:44;;;;;;;33.63;4.20;;;30.10;61.00;;;;;;5031153;28;20169;-66
2021/08/14 12:11:22;;;;;;;48.40;5.22;;;30.10;61.00;;;;;;5031239;28;20539;-67
2021/08/14 12:13:48;;;;;;;55.67;5.43;;;30.20;60.90;;;;;;5029620;28;20157;-66
2021/08/14 12:16:17;;;;;;;81.25;6.75;;;30.30;61.70;;;;;;5030256;28;21480;-66
2021/08/14 12:18:49;;;;;;;73.05;6.60;;;30.30;60.30;;;;;;5030053;28;20084;-67
2021/08/14 12:21:17;;;;;;;44.30;5.05;;;30.30;60.50;;;;;;5031523;28;20439;-66
2021/08/14 12:24:02;;;;;;;42.97;5.45;;;30.30;60.70;;;;;;5031172;28;20096;-65
2021/08/14 12:26:30;;;;;;;36.53;4.53;;;30.20;61.20;;;;;;5030216;28;20070;-66
2021/08/14 12:29:02;;;;;;;38.25;5.55;;;30.10;61.30;;;;;;5031365;28;20594;-66
2021/08/14 12:31:30;;;;;;;23.92;4.38;;;30.10;62.00;;;;;;5029779;28;20100;-65
2021/08/14 12:34:00;;;;;;;36.70;5.22;;;30.10;62.10;;;;;;5030144;28;20168;-65
2021/08/14 12:36:37;;;;;;;28.30;4.32;;;30.10;62.30;;;;;;5030358;28;20086;-65
2021/08/14 12:39:08;;;;;;;21.80;3.70;;;30.00;62.60;;;;;;5030750;28;20097;-66
2021/08/14 12:41:41;;;;;;;18.02;3.90;;;29.90;63.30;;;;;;5030939;28;20062;-66
2021/08/14 12:44:12;;;;;;;23.33;3.63;;;29.90;63.90;;;;;;5031338;28;20085;-66
2021/08/14 12:46:39;;;;;;;13.10;3.40;;;29.90;63.90;;;;;;5029454;28;20074;-66
2021/08/14 12:49:24;;;;;;;13.85;3.22;;;29.80;64.10;;;;;;5030314;28;20102;-66
2021/08/14 12:52:02;;;;;;;15.85;3.08;;;30.00;64.50;;;;;;5031403;28;20082;-66
2021/08/14 12:54:30;;;;;;;21.58;4.03;;;30.00;64.00;;;;;;5030849;28;20116;-66
2021/08/14 12:57:09;;;;;;;11.32;3.10;;;29.90;63.80;;;;;;5030081;28;20128;-66
2021/08/14 12:59:37;;;;;;;17.35;3.58;;;29.80;64.80;;;;;;5029404;28;20114;-66
2021/08/14 13:02:08;;;;;;;12.30;3.10;;;29.80;64.80;;;;;;5030101;28;20082;-66
2021/08/14 13:04:35;;;;;;;13.13;3.63;;;29.90;64.60;;;;;;5030114;28;20625;-66
2021/08/14 13:07:02;;;;;;;15.60;3.33;;;29.80;64.70;;;;;;5029853;28;20157;-66
2021/08/14 13:09:29;;;;;;;8.57;3.40;;;29.80;65.00;;;;;;5030244;28;20601;-66
2021/08/14 13:11:59;;;;;;;9.73;3.13;;;29.70;65.60;;;;;;5028940;28;20070;-66
2021/08/14 13:14:26;;;;;;;12.23;3.08;;;29.70;66.40;;;;;;5029714;28;20084;-67
2021/08/14 13:16:55;;;;;;;11.63;3.25;;;29.70;66.00;;;;;;5030586;28;20066;-66
2021/08/14 13:19:22;;;;;;;8.30;2.83;;;29.80;66.10;;;;;;5030117;28;20504;-66
2021/08/14 13:21:52;;;;;;;6.40;3.03;;;29.80;67.00;;;;;;5030300;28;20090;-66
2021/08/14 13:24:19;;;;;;;8.63;3.50;;;29.70;66.60;;;;;;5029866;28;20124;-66
2021/08/14 13:26:47;;;;;;;5.80;3.83;;;29.70;67.10;;;;;;5029989;28;20120;-66
2021/08/14 13:29:14;;;;;;;7.47;3.42;;;29.70;68.30;;;;;;5029685;28;20093;-66
2021/08/14 13:31:42;;;;;;;6.57;3.70;;;29.70;67.70;;;;;;5029761;28;20093;-66
2021/08/14 13:34:10;;;;;;;7.45;3.35;;;29.70;67.80;;;;;;5030111;28;20538;-66